createdAt,value
2022-12-03T00:02:21.500Z,41.77
2022-12-03T00:04:48.238Z,42.37
2022-12-03T00:07:14.952Z,39.63
2022-12-03T00:09:41.592Z,41.03
2022-12-03T00:12:08.752Z,40.77
2022-12-03T00:14:37.810Z,37.87
2022-12-03T00:17:08.067Z,39.93
2022-12-03T00:19:34.909Z,38.30
2022-12-03T00:22:01.670Z,41.47
2022-12-03T00:24:28.304Z,37.43
2022-12-03T00:26:55.152Z,39.93
2022-12-03T00:29:21.842Z,39.70
2022-12-03T00:31:48.537Z,39.80
2022-12-03T00:34:15.223Z,37.80
2022-12-03T00:36:41.903Z,42.97
2022-12-03T00:39:08.540Z,40.60
2022-12-03T00:41:36.145Z,38.87
2022-12-03T00:44:03.367Z,39.77
2022-12-03T00:46:30.100Z,42.53
2022-12-03T00:48:56.787Z,39.70
2022-12-03T00:51:23.604Z,39.20
2022-12-03T00:53:50.325Z,42.67
2022-12-03T00:56:17.091Z,39.13
2022-12-03T00:58:43.791Z,40.13
2022-12-03T01:01:10.509Z,40.97
2022-12-03T01:03:37.836Z,39.93
2022-12-03T01:06:04.697Z,40.57
2022-12-03T01:08:31.368Z,42.20
2022-12-03T01:10:58.010Z,41.33
2022-12-03T01:13:24.685Z,39.90
2022-12-03T01:15:51.479Z,43.07
2022-12-03T01:18:18.164Z,40.63
2022-12-03T01:20:44.945Z,40.90
2022-12-03T01:23:13.045Z,39.93
2022-12-03T01:25:39.740Z,42.87
2022-12-03T01:28:06.383Z,40.73
2022-12-03T01:30:53.439Z,38.23
2022-12-03T01:33:20.230Z,41.10
2022-12-03T01:35:46.851Z,39.40
2022-12-03T01:38:14.172Z,40.33
2022-12-03T01:40:41.045Z,39.80
2022-12-03T01:43:07.721Z,40.27
2022-12-03T01:45:34.356Z,40.90
2022-12-03T01:48:01.175Z,40.93
2022-12-03T01:50:33.065Z,38.47
2022-12-03T01:53:03.061Z,39.70
2022-12-03T01:55:30.440Z,40.37
2022-12-03T01:58:00.735Z,38.90
2022-12-03T02:00:29.819Z,41.67
2022-12-03T02:03:12.230Z,40.17
2022-12-03T02:05:39.085Z,41.77
2022-12-03T02:08:32.229Z,41.13
2022-12-03T02:11:06.499Z,40.70
2022-12-03T02:13:33.415Z,39.03
2022-12-03T02:16:00.152Z,41.50
2022-12-03T02:18:27.008Z,37.37
2022-12-03T02:21:10.207Z,42.40
2022-12-03T02:24:12.688Z,40.43
2022-12-03T02:26:39.446Z,40.17
2022-12-03T02:29:06.128Z,38.73
2022-12-03T02:31:33.165Z,41.90
2022-12-03T02:33:59.882Z,39.23
2022-12-03T02:36:27.067Z,39.00
2022-12-03T02:38:53.822Z,39.00
2022-12-03T02:41:40.089Z,39.67
2022-12-03T02:44:08.194Z,38.80
2022-12-03T02:46:35.776Z,41.70
2022-12-03T02:49:05.184Z,37.67
2022-12-03T02:51:33.600Z,39.73
2022-12-03T02:54:00.808Z,37.53
2022-12-03T02:56:31.095Z,37.73
2022-12-03T02:59:02.999Z,38.77
2022-12-03T03:01:29.918Z,37.67
2022-12-03T03:03:57.488Z,34.77
2022-12-03T03:06:24.765Z,37.20
2022-12-03T03:08:52.234Z,38.00
2022-12-03T03:11:18.975Z,36.50
2022-12-03T03:13:46.272Z,37.83
2022-12-03T03:16:13.063Z,37.70
2022-12-03T03:18:40.037Z,36.63
2022-12-03T03:21:06.930Z,39.77
2022-12-03T03:23:33.747Z,36.70
2022-12-03T03:26:06.000Z,36.97
2022-12-03T03:28:37.500Z,37.43
2022-12-03T03:31:07.018Z,37.23
2022-12-03T03:33:34.990Z,37.27
2022-12-03T03:36:02.260Z,36.13
2022-12-03T03:38:30.236Z,37.53
2022-12-03T03:41:00.118Z,37.33
2022-12-03T03:43:27.980Z,36.20
2022-12-03T03:45:55.535Z,36.67
2022-12-03T03:48:22.867Z,38.27
2022-12-03T03:50:50.882Z,37.33
2022-12-03T03:53:19.164Z,35.80
2022-12-03T03:55:46.186Z,37.70
2022-12-03T03:58:13.901Z,35.07
2022-12-03T04:00:44.541Z,35.93
2022-12-03T04:03:11.583Z,36.70
2022-12-03T04:05:38.832Z,36.53
2022-12-03T04:08:05.698Z,35.47
2022-12-03T04:10:50.947Z,36.63
2022-12-03T04:13:17.705Z,35.50
2022-12-03T04:15:44.349Z,36.63
2022-12-03T04:18:29.588Z,37.20
2022-12-03T04:21:16.204Z,36.63
2022-12-03T04:23:42.949Z,35.33
2022-12-03T04:26:28.328Z,34.83
2022-12-03T04:28:55.357Z,36.30
2022-12-03T04:31:40.621Z,35.60
2022-12-03T04:34:27.106Z,35.47
2022-12-03T04:36:55.216Z,36.20
2022-12-03T04:39:21.926Z,35.97
2022-12-03T04:41:48.617Z,34.63
2022-12-03T04:44:33.119Z,37.37
2022-12-03T04:47:01.031Z,37.40
2022-12-03T04:49:27.843Z,36.17
2022-12-03T04:51:54.534Z,37.97
2022-12-03T04:54:21.508Z,36.63
2022-12-03T04:56:48.291Z,37.67
2022-12-03T04:59:16.419Z,37.77
2022-12-03T05:01:44.383Z,37.90
2022-12-03T05:04:12.752Z,37.83
2022-12-03T05:06:39.784Z,37.77
2022-12-03T05:09:06.619Z,38.13
2022-12-03T05:11:33.605Z,37.30
2022-12-03T05:14:00.256Z,38.40
2022-12-03T05:16:28.770Z,37.77
2022-12-03T05:18:55.436Z,39.37
2022-12-03T05:21:22.192Z,38.63
2022-12-03T05:23:49.459Z,38.17
2022-12-03T05:26:16.371Z,38.47
2022-12-03T05:28:43.000Z,36.13
2022-12-03T05:31:09.959Z,36.20
2022-12-03T05:33:42.452Z,36.63
2022-12-03T05:36:10.846Z,38.00
2022-12-03T05:38:37.608Z,37.60
2022-12-03T05:41:25.146Z,37.23
2022-12-03T05:43:51.880Z,38.67
2022-12-03T05:46:18.846Z,36.77
2022-12-03T05:48:45.953Z,37.33
2022-12-03T05:51:12.683Z,36.97
2022-12-03T05:53:39.375Z,35.70
2022-12-03T05:56:06.462Z,39.67
2022-12-03T05:58:33.259Z,35.43
2022-12-03T06:00:59.920Z,37.97
2022-12-03T06:03:27.188Z,35.27
2022-12-03T06:05:53.968Z,37.40
2022-12-03T06:08:20.662Z,37.20
2022-12-03T06:10:47.411Z,39.97
2022-12-03T06:13:14.108Z,36.53
2022-12-03T06:15:43.901Z,39.63
2022-12-03T06:18:11.767Z,36.40
2022-12-03T06:20:38.467Z,37.23
2022-12-03T06:23:05.355Z,38.13
2022-12-03T06:25:32.017Z,37.83
2022-12-03T06:27:58.676Z,39.40
2022-12-03T06:30:25.279Z,38.07
2022-12-03T06:32:52.805Z,38.37
2022-12-03T06:35:19.535Z,40.97
2022-12-03T06:37:49.053Z,37.87
2022-12-03T06:40:16.721Z,39.37
2022-12-03T06:42:43.805Z,42.60
2022-12-03T06:45:12.005Z,42.30
2022-12-03T06:47:38.687Z,39.80
2022-12-03T06:50:07.372Z,39.97
2022-12-03T06:52:34.951Z,40.47
2022-12-03T06:55:01.693Z,40.80
2022-12-03T06:57:28.496Z,43.10
2022-12-03T06:59:55.607Z,39.33
2022-12-03T07:02:22.556Z,39.53
2022-12-03T07:04:49.239Z,40.30
2022-12-03T07:07:15.962Z,40.83
2022-12-03T07:09:43.279Z,42.53
2022-12-03T07:12:10.043Z,42.07
2022-12-03T07:14:37.132Z,42.77
2022-12-03T07:17:03.803Z,42.27
2022-12-03T07:19:32.862Z,40.87
2022-12-03T07:22:00.345Z,40.80
2022-12-03T07:24:27.567Z,42.60
2022-12-03T07:26:54.553Z,42.70
2022-12-03T07:29:21.369Z,43.80
2022-12-03T07:31:48.321Z,42.90
2022-12-03T07:34:15.084Z,42.33
2022-12-03T07:36:41.869Z,42.90
2022-12-03T07:39:08.573Z,43.13
2022-12-03T07:41:35.215Z,43.47
2022-12-03T07:44:01.878Z,43.43
2022-12-03T07:46:28.727Z,42.47
2022-12-03T07:48:55.408Z,41.43
2022-12-03T07:51:24.183Z,44.53
2022-12-03T07:53:52.868Z,43.53
2022-12-03T07:56:19.491Z,40.80
2022-12-03T07:58:46.202Z,41.80
2022-12-03T08:01:13.206Z,43.43
2022-12-03T08:03:40.143Z,43.03
2022-12-03T08:06:06.967Z,41.40
2022-12-03T08:08:33.652Z,44.37
2022-12-03T08:11:02.127Z,42.70
2022-12-03T08:13:28.855Z,42.90
2022-12-03T08:16:00.201Z,44.33
2022-12-03T08:18:28.812Z,45.80
2022-12-03T08:20:55.477Z,43.03
2022-12-03T08:23:25.635Z,41.53
2022-12-03T08:25:53.364Z,43.17
2022-12-03T08:28:26.697Z,41.40
2022-12-03T08:31:12.632Z,42.17
2022-12-03T08:33:41.773Z,46.40
2022-12-03T08:36:31.189Z,42.13
2022-12-03T08:39:18.546Z,41.73
2022-12-03T08:42:05.956Z,45.20
2022-12-03T08:44:40.869Z,42.80
2022-12-03T08:47:19.525Z,41.67
2022-12-03T08:50:01.277Z,40.73
2022-12-03T08:52:34.134Z,43.07
2022-12-03T08:55:27.944Z,41.47
2022-12-03T08:57:58.610Z,42.03
2022-12-03T09:00:25.582Z,41.13
2022-12-03T09:02:59.395Z,41.63
2022-12-03T09:05:32.272Z,41.90
2022-12-03T09:07:59.475Z,43.23
2022-12-03T09:10:26.173Z,40.17
2022-12-03T09:12:53.195Z,42.27
2022-12-03T09:15:20.030Z,40.93
2022-12-03T09:17:49.977Z,41.80
2022-12-03T09:20:16.795Z,41.13
2022-12-03T09:22:43.591Z,41.40
2022-12-03T09:25:10.409Z,41.77
2022-12-03T09:27:37.050Z,42.03
2022-12-03T09:30:05.385Z,40.97
2022-12-03T09:32:32.191Z,41.63
2022-12-03T09:34:58.974Z,41.37
2022-12-03T09:37:25.753Z,42.07
2022-12-03T09:39:52.428Z,41.77
2022-12-03T09:42:19.214Z,41.23
2022-12-03T09:44:46.083Z,42.10
2022-12-03T09:47:12.835Z,40.07
2022-12-03T09:49:40.834Z,41.40
2022-12-03T09:52:08.083Z,39.60
2022-12-03T09:54:35.322Z,41.67
2022-12-03T09:57:04.086Z,39.70
2022-12-03T09:59:34.282Z,40.90
2022-12-03T10:02:02.742Z,39.27
2022-12-03T10:04:30.238Z,41.50
2022-12-03T10:06:58.798Z,37.83
2022-12-03T10:09:30.288Z,39.60
2022-12-03T10:11:58.980Z,39.70
2022-12-03T10:14:26.421Z,40.13
2022-12-03T10:16:53.197Z,38.33
2022-12-03T10:19:29.284Z,38.53
2022-12-03T10:21:56.013Z,39.37
2022-12-03T10:24:32.517Z,41.10
2022-12-03T10:27:21.622Z,39.73
2022-12-03T10:30:00.937Z,39.60
2022-12-03T10:32:39.740Z,39.30
2022-12-03T10:35:14.203Z,40.07
2022-12-03T10:38:02.484Z,41.67
2022-12-03T10:40:35.689Z,38.50
2022-12-03T10:43:25.508Z,40.57
2022-12-03T10:46:12.714Z,40.50
2022-12-03T10:48:39.474Z,40.50
2022-12-03T10:51:21.007Z,38.80
2022-12-03T10:53:49.668Z,38.87
2022-12-03T10:56:26.117Z,41.63
2022-12-03T10:58:53.160Z,42.63
2022-12-03T11:01:23.553Z,40.30
2022-12-03T11:03:51.269Z,41.33
2022-12-03T11:06:21.052Z,40.00
2022-12-03T11:08:58.523Z,41.20
2022-12-03T11:11:31.071Z,40.60
2022-12-03T11:14:02.737Z,40.93
2022-12-03T11:16:41.776Z,39.73
2022-12-03T11:19:47.105Z,39.63
2022-12-03T11:22:13.961Z,39.97
2022-12-03T11:24:40.885Z,41.23
2022-12-03T11:27:18.688Z,41.23
2022-12-03T11:29:59.064Z,39.13
2022-12-03T11:32:37.719Z,38.77
2022-12-03T11:35:34.898Z,38.07
2022-12-03T11:38:40.788Z,40.07
2022-12-03T11:41:19.682Z,38.63
2022-12-03T11:43:52.468Z,41.37
2022-12-03T11:46:21.470Z,40.23
2022-12-03T11:48:53.084Z,37.33
2022-12-03T11:51:24.637Z,38.83
2022-12-03T11:53:53.923Z,38.87
2022-12-03T11:56:24.929Z,38.37
2022-12-03T11:59:03.734Z,39.40
2022-12-03T12:01:40.070Z,37.30
2022-12-03T12:04:31.220Z,38.10
2022-12-03T12:06:58.138Z,41.17
2022-12-03T12:09:55.156Z,36.80
2022-12-03T12:12:45.617Z,37.83
2022-12-03T12:15:43.020Z,40.47
2022-12-03T12:18:45.604Z,38.43
2022-12-03T12:21:47.660Z,37.73
2022-12-03T12:24:45.666Z,39.20
2022-12-03T12:27:45.001Z,38.03
2022-12-03T12:30:20.513Z,37.70
2022-12-03T12:32:53.383Z,38.17
2022-12-03T12:35:27.313Z,38.67
2022-12-03T12:38:17.134Z,37.33
2022-12-03T12:40:49.227Z,38.73
2022-12-03T12:43:25.047Z,37.13
2022-12-03T12:45:57.019Z,39.10
2022-12-03T12:48:34.357Z,39.03
2022-12-03T12:51:18.708Z,37.30
2022-12-03T12:53:45.872Z,38.30
2022-12-03T12:56:29.962Z,37.57
2022-12-03T12:59:06.413Z,37.33
2022-12-03T13:01:35.484Z,37.53
2022-12-03T13:04:10.254Z,37.40
2022-12-03T13:06:37.097Z,36.50
2022-12-03T13:09:03.877Z,37.53
2022-12-03T13:11:44.106Z,38.07
2022-12-03T13:14:23.798Z,35.07
2022-12-03T13:16:54.610Z,38.70
2022-12-03T13:19:30.349Z,36.43
2022-12-03T13:22:01.891Z,37.60
2022-12-03T13:24:38.137Z,36.60
2022-12-03T13:27:14.008Z,37.73
2022-12-03T13:29:40.652Z,37.57
2022-12-03T13:32:33.169Z,37.63
2022-12-03T13:35:31.356Z,36.10
2022-12-03T13:37:59.156Z,37.67
2022-12-03T13:40:31.346Z,38.33
2022-12-03T13:42:59.357Z,35.37
2022-12-03T13:45:31.896Z,35.93
2022-12-03T13:48:02.764Z,37.17
2022-12-03T13:50:46.114Z,37.30
2022-12-03T13:53:27.853Z,38.33
2022-12-03T13:56:14.555Z,36.87
2022-12-03T13:58:41.381Z,39.10
2022-12-03T14:01:08.039Z,36.47
2022-12-03T14:03:35.350Z,38.20
2022-12-03T14:06:02.062Z,37.60
2022-12-03T14:08:29.847Z,39.73
2022-12-03T14:11:00.354Z,40.03
2022-12-03T14:13:27.510Z,40.43
2022-12-03T14:15:54.173Z,41.73
2022-12-03T14:18:20.854Z,36.73
2022-12-03T14:20:48.233Z,36.87
2022-12-03T14:23:15.423Z,34.17
2022-12-03T14:25:43.921Z,37.83
2022-12-03T14:28:11.090Z,38.80
2022-12-03T14:30:37.785Z,36.07
2022-12-03T14:33:04.566Z,35.70
2022-12-03T14:35:31.206Z,35.77
2022-12-03T14:37:57.862Z,39.00
2022-12-03T14:40:24.528Z,38.57
2022-12-03T14:42:51.189Z,36.03
2022-12-03T14:45:17.857Z,38.87
2022-12-03T14:47:44.628Z,36.23
2022-12-03T14:50:14.338Z,38.33
2022-12-03T14:52:41.454Z,38.57
2022-12-03T14:55:08.757Z,39.87
2022-12-03T14:57:36.972Z,38.97
2022-12-03T15:00:06.261Z,36.97
2022-12-03T15:02:33.210Z,39.70
2022-12-03T15:04:59.972Z,35.83
2022-12-03T15:07:26.786Z,36.90
2022-12-03T15:09:53.847Z,37.47
2022-12-03T15:12:20.849Z,39.90
2022-12-03T15:14:47.563Z,37.23
2022-12-03T15:17:14.493Z,38.07
2022-12-03T15:19:41.616Z,35.20
2022-12-03T15:22:11.537Z,37.00
2022-12-03T15:24:38.358Z,37.83
2022-12-03T15:27:05.087Z,35.77
2022-12-03T15:29:32.897Z,35.30
2022-12-03T15:32:00.918Z,36.77
2022-12-03T15:34:27.714Z,36.33
2022-12-03T15:36:54.604Z,34.87
2022-12-03T15:39:22.123Z,35.87
2022-12-03T15:41:49.023Z,34.73
2022-12-03T15:44:15.943Z,34.27
2022-12-03T15:46:42.729Z,35.03
2022-12-03T15:49:09.495Z,35.33
2022-12-03T15:51:36.168Z,35.83
2022-12-03T15:54:02.971Z,35.27
2022-12-03T15:56:29.634Z,34.87
2022-12-03T15:58:57.111Z,36.90
2022-12-03T16:01:23.974Z,37.53
2022-12-03T16:03:50.739Z,35.17
2022-12-03T16:06:19.528Z,34.37
2022-12-03T16:08:46.299Z,35.10
2022-12-03T16:11:12.977Z,36.00
2022-12-03T16:13:39.683Z,33.90
2022-12-03T16:16:06.656Z,33.50
2022-12-03T16:18:33.564Z,34.67
2022-12-03T16:21:00.455Z,34.53
2022-12-03T16:23:27.293Z,34.77
2022-12-03T16:25:53.906Z,34.27
2022-12-03T16:28:20.663Z,34.47
2022-12-03T16:30:47.394Z,33.93
2022-12-03T16:33:14.059Z,34.67
2022-12-03T16:35:40.720Z,33.07
2022-12-03T16:38:10.195Z,34.13
2022-12-03T16:40:36.852Z,34.33
2022-12-03T16:43:04.822Z,37.10
2022-12-03T16:46:03.638Z,35.10
2022-12-03T16:48:30.456Z,33.20
2022-12-03T16:50:59.141Z,33.97
2022-12-03T16:53:26.064Z,34.13
2022-12-03T16:55:52.803Z,33.73
2022-12-03T16:58:21.226Z,33.83
2022-12-03T17:00:49.001Z,32.67
2022-12-03T17:03:17.762Z,34.00
2022-12-03T17:05:45.719Z,32.27
2022-12-03T17:08:13.425Z,33.60
2022-12-03T17:10:40.338Z,36.40
2022-12-03T17:13:09.972Z,35.50
2022-12-03T17:15:37.922Z,31.43
2022-12-03T17:18:05.174Z,32.73
2022-12-03T17:20:32.793Z,33.10
2022-12-03T17:22:59.947Z,33.87
2022-12-03T17:25:27.855Z,35.13
2022-12-03T17:27:54.711Z,33.37
2022-12-03T17:30:21.550Z,34.13
2022-12-03T17:32:50.228Z,32.90
2022-12-03T17:35:17.513Z,34.80
2022-12-03T17:37:44.308Z,32.70
2022-12-03T17:40:13.837Z,34.63
2022-12-03T17:42:40.500Z,35.03
2022-12-03T17:45:08.160Z,35.10
2022-12-03T17:47:34.893Z,34.77
2022-12-03T17:50:01.903Z,33.37
2022-12-03T17:52:28.640Z,34.63
2022-12-03T17:55:10.802Z,34.57
2022-12-03T17:57:38.815Z,33.07
2022-12-03T18:00:06.491Z,33.90
2022-12-03T18:02:38.858Z,36.63
2022-12-03T18:05:06.272Z,33.77
2022-12-03T18:07:33.128Z,33.83
2022-12-03T18:10:00.035Z,33.90
2022-12-03T18:12:26.908Z,32.30
2022-12-03T18:14:53.818Z,33.00
2022-12-03T18:17:20.541Z,30.93
2022-12-03T18:19:47.310Z,35.07
2022-12-03T18:22:14.237Z,33.47
2022-12-03T18:24:41.212Z,33.17
2022-12-03T18:27:08.178Z,33.43
2022-12-03T18:29:35.020Z,33.87
2022-12-03T18:32:01.950Z,35.47
2022-12-03T18:34:28.847Z,34.57
2022-12-03T18:36:55.692Z,37.10
2022-12-03T18:39:31.380Z,34.23
2022-12-03T18:41:59.150Z,34.27
2022-12-03T18:44:26.067Z,34.43
2022-12-03T18:46:54.265Z,33.43
2022-12-03T18:49:21.678Z,32.77
2022-12-03T18:51:49.309Z,35.27
2022-12-03T18:54:17.240Z,34.60
2022-12-03T18:56:43.962Z,35.83
2022-12-03T18:59:11.385Z,34.67
2022-12-03T19:01:38.339Z,35.93
2022-12-03T19:04:05.179Z,33.60
2022-12-03T19:06:32.253Z,33.53
2022-12-03T19:08:59.085Z,33.30
2022-12-03T19:11:25.813Z,34.13
2022-12-03T19:13:52.632Z,33.53
2022-12-03T19:16:19.603Z,34.70
2022-12-03T19:18:46.348Z,33.87
2022-12-03T19:21:16.872Z,33.80
2022-12-03T19:24:04.294Z,35.23
2022-12-03T19:26:30.893Z,34.43
2022-12-03T19:28:57.583Z,32.73
2022-12-03T19:31:24.339Z,33.87
2022-12-03T19:33:51.760Z,38.00
2022-12-03T19:36:30.657Z,32.27
2022-12-03T19:38:59.525Z,34.27
2022-12-03T19:41:30.425Z,35.00
2022-12-03T19:43:58.014Z,34.87
2022-12-03T19:46:28.665Z,33.83
2022-12-03T19:48:55.580Z,33.87
2022-12-03T19:51:37.223Z,34.00
2022-12-03T19:54:06.954Z,32.93
2022-12-03T19:56:34.524Z,35.47
2022-12-03T19:59:01.442Z,33.37
2022-12-03T20:01:32.431Z,33.80
2022-12-03T20:04:01.275Z,34.93
2022-12-03T20:06:32.496Z,36.03
2022-12-03T20:09:11.228Z,35.07
2022-12-03T20:11:40.045Z,34.23
2022-12-03T20:14:10.978Z,33.83
2022-12-03T20:16:37.816Z,33.60
2022-12-03T20:19:07.664Z,35.87
2022-12-03T20:21:36.397Z,35.23
2022-12-03T20:24:03.688Z,32.47
2022-12-03T20:26:30.511Z,34.83
2022-12-03T20:28:58.114Z,34.20
2022-12-03T20:31:28.779Z,35.23
2022-12-03T20:33:59.800Z,36.13
2022-12-03T20:36:28.622Z,34.47
2022-12-03T20:38:57.717Z,36.50
2022-12-03T20:41:25.097Z,36.20
2022-12-03T20:43:53.259Z,34.90
2022-12-03T20:46:27.041Z,34.70
2022-12-03T20:48:55.168Z,34.53
2022-12-03T20:51:25.602Z,33.57
2022-12-03T20:53:52.987Z,33.97
2022-12-03T20:56:27.007Z,36.63
2022-12-03T20:58:54.043Z,35.07
2022-12-03T21:01:24.940Z,36.97
2022-12-03T21:03:54.161Z,37.70
2022-12-03T21:06:22.405Z,35.73
2022-12-03T21:08:49.215Z,37.17
2022-12-03T21:11:26.280Z,34.70
2022-12-03T21:13:54.551Z,35.97
2022-12-03T21:16:39.757Z,36.07
2022-12-03T21:19:12.049Z,35.33
2022-12-03T21:21:39.047Z,37.83
2022-12-03T21:24:06.210Z,34.83
2022-12-03T21:26:33.546Z,35.83
2022-12-03T21:29:00.328Z,32.37
2022-12-03T21:31:27.449Z,36.03
2022-12-03T21:33:56.252Z,36.43
2022-12-03T21:36:24.709Z,37.33
2022-12-03T21:38:52.096Z,36.00
2022-12-03T21:41:19.385Z,36.77
2022-12-03T21:43:46.503Z,38.17
2022-12-03T21:47:10.471Z,36.30
2022-12-03T21:49:03.956Z,37.03
2022-12-03T21:51:30.725Z,37.23
2022-12-03T21:53:57.467Z,36.97
2022-12-03T21:56:24.382Z,38.10
2022-12-03T21:58:51.175Z,38.33
2022-12-03T22:01:21.361Z,35.77
2022-12-03T22:03:49.114Z,38.97
2022-12-03T22:06:16.702Z,38.50
2022-12-03T22:08:44.078Z,36.73
2022-12-03T22:11:17.305Z,38.30
2022-12-03T22:13:45.715Z,35.93
2022-12-03T22:16:19.530Z,39.43
2022-12-03T22:18:46.833Z,37.43
2022-12-03T22:21:17.616Z,36.77
2022-12-03T22:23:45.370Z,39.30
2022-12-03T22:26:15.451Z,38.47
2022-12-03T22:28:47.492Z,36.20
2022-12-03T22:31:15.782Z,40.83
2022-12-03T22:33:45.512Z,39.40
2022-12-03T22:36:20.163Z,39.07
2022-12-03T22:38:48.819Z,38.83
2022-12-03T22:41:15.937Z,39.70
2022-12-03T22:43:43.293Z,39.50
2022-12-03T22:46:12.370Z,39.47
2022-12-03T22:48:41.729Z,38.37
2022-12-03T22:51:21.715Z,37.93
2022-12-03T22:53:57.598Z,39.40
2022-12-03T22:56:25.379Z,40.07
2022-12-03T22:58:52.391Z,40.77
2022-12-03T23:01:26.208Z,39.50
2022-12-03T23:03:53.372Z,38.73
2022-12-03T23:06:20.449Z,40.03
2022-12-03T23:08:47.736Z,40.87
2022-12-03T23:11:15.572Z,38.10
2022-12-03T23:13:42.743Z,39.33
2022-12-03T23:16:15.734Z,39.63
2022-12-03T23:18:42.693Z,39.73
2022-12-03T23:21:09.791Z,41.63
2022-12-03T23:23:36.465Z,40.20
2022-12-03T23:26:07.551Z,41.90
2022-12-03T23:28:37.601Z,42.63
2022-12-03T23:31:05.524Z,40.10
2022-12-03T23:33:37.984Z,41.70
2022-12-03T23:36:06.684Z,43.17
2022-12-03T23:38:33.614Z,39.73
2022-12-03T23:41:05.788Z,40.90
2022-12-03T23:43:32.509Z,43.97
2022-12-03T23:46:08.780Z,41.87
2022-12-03T23:48:36.030Z,42.23
2022-12-03T23:51:24.110Z,40.90
2022-12-03T23:53:53.357Z,40.60
2022-12-03T23:56:25.404Z,42.97
2022-12-03T23:58:52.206Z,41.77
